createdAt,value
2023-03-18T00:02:13.746Z,66.26
2023-03-18T00:04:40.581Z,66.08
2023-03-18T00:07:07.544Z,66.21
2023-03-18T00:09:34.576Z,66.10
2023-03-18T00:12:01.520Z,66.18
2023-03-18T00:14:29.489Z,66.32
2023-03-18T00:16:57.009Z,66.12
2023-03-18T00:19:24.675Z,66.05
2023-03-18T00:21:51.472Z,66.11
2023-03-18T00:24:18.186Z,65.99
2023-03-18T00:26:45.887Z,66.22
2023-03-18T00:29:13.115Z,66.14
2023-03-18T00:31:41.198Z,66.22
2023-03-18T00:34:12.493Z,66.21
2023-03-18T00:36:41.228Z,66.18
2023-03-18T00:39:08.984Z,66.30
2023-03-18T00:41:37.787Z,66.38
2023-03-18T00:44:05.440Z,66.28
2023-03-18T00:46:37.195Z,66.35
2023-03-18T00:49:05.988Z,66.22
2023-03-18T00:51:34.721Z,66.30
2023-03-18T00:54:06.014Z,66.21
2023-03-18T00:56:33.358Z,66.13
2023-03-18T00:59:00.369Z,66.03
2023-03-18T01:01:27.716Z,65.96
2023-03-18T01:03:55.291Z,65.86
2023-03-18T01:06:24.425Z,66.01
2023-03-18T01:08:53.195Z,66.14
2023-03-18T01:11:19.963Z,66.13
2023-03-18T01:13:47.432Z,66.01
2023-03-18T01:16:14.484Z,66.07
2023-03-18T01:18:41.542Z,65.82
2023-03-18T01:21:09.043Z,65.77
2023-03-18T01:23:38.591Z,65.74
2023-03-18T01:26:05.492Z,65.87
2023-03-18T01:28:33.434Z,65.67
2023-03-18T01:31:00.966Z,65.57
2023-03-18T01:33:29.445Z,65.63
2023-03-18T01:35:59.428Z,65.75
2023-03-18T01:38:31.439Z,65.72
2023-03-18T01:41:07.038Z,65.69
2023-03-18T01:43:35.760Z,65.69
2023-03-18T01:46:44.392Z,65.75
2023-03-18T01:49:22.184Z,65.89
2023-03-18T01:51:57.944Z,65.85
2023-03-18T01:54:25.951Z,65.80
2023-03-18T01:56:53.457Z,65.77
2023-03-18T01:59:21.992Z,65.92
2023-03-18T02:02:06.298Z,65.99
2023-03-18T02:04:56.807Z,65.90
2023-03-18T02:07:29.258Z,65.86
2023-03-18T02:09:57.361Z,65.82
2023-03-18T02:12:26.551Z,65.47
2023-03-18T02:14:55.600Z,65.49
2023-03-18T02:17:29.876Z,65.45
2023-03-18T02:20:14.480Z,65.53
2023-03-18T02:22:45.068Z,65.59
2023-03-18T02:25:33.612Z,65.46
2023-03-18T02:28:02.759Z,65.51
2023-03-18T02:30:54.229Z,65.33
2023-03-18T02:33:22.606Z,66.48
2023-03-18T02:35:56.533Z,69.07
2023-03-18T02:38:23.873Z,69.59
2023-03-18T02:40:53.997Z,70.05
2023-03-18T02:43:24.681Z,70.04
2023-03-18T02:45:57.529Z,70.10
2023-03-18T02:48:28.756Z,69.96
2023-03-18T02:50:55.438Z,69.99
2023-03-18T02:53:25.673Z,70.13
2023-03-18T02:55:52.671Z,70.10
2023-03-18T02:58:19.253Z,70.26
2023-03-18T03:00:47.804Z,70.06
2023-03-18T03:03:14.897Z,69.97
2023-03-18T03:05:45.334Z,69.41
2023-03-18T03:08:12.612Z,69.29
2023-03-18T03:10:41.531Z,69.16
2023-03-18T03:13:11.532Z,69.32
2023-03-18T03:15:42.540Z,69.49
2023-03-18T03:18:09.726Z,69.32
2023-03-18T03:20:38.393Z,68.56
2023-03-18T03:23:06.719Z,65.99
2023-03-18T03:25:34.871Z,65.21
2023-03-18T03:28:03.387Z,64.83
2023-03-18T03:30:30.318Z,64.55
2023-03-18T03:33:02.320Z,64.20
2023-03-18T03:35:29.103Z,63.85
2023-03-18T03:37:56.352Z,63.72
2023-03-18T03:40:23.384Z,63.60
2023-03-18T03:42:51.263Z,63.63
2023-03-18T03:45:18.656Z,63.69
2023-03-18T03:47:46.613Z,63.54
2023-03-18T03:50:18.560Z,63.42
2023-03-18T03:52:47.607Z,63.51
2023-03-18T03:55:16.906Z,63.59
2023-03-18T03:57:45.293Z,63.45
2023-03-18T04:00:14.736Z,63.48
2023-03-18T04:02:43.139Z,63.52
2023-03-18T04:05:12.004Z,63.41
2023-03-18T04:07:39.158Z,63.28
2023-03-18T04:10:08.991Z,63.49
2023-03-18T04:12:37.633Z,63.24
2023-03-18T04:15:06.063Z,63.07
2023-03-18T04:17:34.029Z,63.15
2023-03-18T04:20:01.469Z,63.25
2023-03-18T04:22:31.343Z,63.26
2023-03-18T04:24:59.931Z,63.25
2023-03-18T04:27:27.543Z,63.17
2023-03-18T04:29:55.856Z,63.06
2023-03-18T04:32:23.080Z,63.24
2023-03-18T04:34:49.893Z,63.32
2023-03-18T04:37:19.629Z,63.33
2023-03-18T04:39:47.421Z,63.40
2023-03-18T04:42:15.397Z,63.28
2023-03-18T04:44:42.142Z,63.23
2023-03-18T04:47:09.146Z,63.28
2023-03-18T04:49:37.232Z,63.33
2023-03-18T04:52:04.812Z,63.44
2023-03-18T04:54:36.653Z,63.33
2023-03-18T04:57:05.562Z,63.43
2023-03-18T04:59:35.538Z,63.44
2023-03-18T05:02:04.451Z,63.41
2023-03-18T05:04:31.848Z,63.42
2023-03-18T05:07:00.158Z,63.45
2023-03-18T05:09:30.840Z,63.54
2023-03-18T05:12:00.612Z,63.22
2023-03-18T05:14:32.358Z,63.30
2023-03-18T05:16:59.526Z,63.31
2023-03-18T05:19:27.586Z,63.40
2023-03-18T05:22:00.539Z,63.00
2023-03-18T05:24:28.142Z,62.86
2023-03-18T05:26:59.506Z,62.86
2023-03-18T05:29:31.960Z,62.76
2023-03-18T05:32:19.695Z,62.57
2023-03-18T05:34:50.075Z,62.59
2023-03-18T05:37:17.475Z,62.42
2023-03-18T05:39:50.562Z,62.49
2023-03-18T05:42:19.176Z,62.54
2023-03-18T05:44:46.294Z,62.39
2023-03-18T05:47:13.431Z,62.47
2023-03-18T05:49:52.373Z,62.23
2023-03-18T05:52:24.148Z,62.25
2023-03-18T05:54:53.742Z,62.11
2023-03-18T05:57:26.122Z,62.04
2023-03-18T05:59:59.033Z,61.76
2023-03-18T06:02:28.055Z,61.57
2023-03-18T06:04:55.502Z,61.36
2023-03-18T06:07:23.292Z,61.23
2023-03-18T06:09:51.807Z,61.18
2023-03-18T06:12:19.751Z,61.23
2023-03-18T06:14:46.344Z,61.18
2023-03-18T06:17:13.381Z,60.98
2023-03-18T06:19:40.718Z,60.89
2023-03-18T06:22:09.370Z,60.87
2023-03-18T06:24:36.861Z,60.58
2023-03-18T06:27:04.165Z,60.66
2023-03-18T06:29:33.241Z,60.70
2023-03-18T06:32:09.409Z,60.53
2023-03-18T06:34:40.317Z,60.25
2023-03-18T06:37:07.695Z,60.07
2023-03-18T06:39:34.919Z,60.16
2023-03-18T06:42:04.327Z,60.38
2023-03-18T06:44:36.199Z,60.17
2023-03-18T06:47:18.829Z,60.13
2023-03-18T06:49:51.583Z,60.04
2023-03-18T06:52:22.789Z,60.02
2023-03-18T06:54:50.097Z,59.74
2023-03-18T06:57:16.948Z,59.36
2023-03-18T06:59:48.686Z,59.50
2023-03-18T07:02:15.773Z,59.09
2023-03-18T07:04:42.707Z,58.57
2023-03-18T07:07:10.490Z,58.49
2023-03-18T07:09:37.289Z,58.40
2023-03-18T07:12:07.758Z,58.58
2023-03-18T07:14:35.078Z,58.52
2023-03-18T07:17:02.249Z,58.28
2023-03-18T07:19:32.677Z,58.23
2023-03-18T07:22:01.952Z,57.74
2023-03-18T07:24:29.815Z,57.70
2023-03-18T07:27:04.014Z,57.66
2023-03-18T07:29:33.306Z,57.70
2023-03-18T07:32:01.256Z,57.27
2023-03-18T07:34:28.254Z,57.20
2023-03-18T07:36:55.982Z,56.40
2023-03-18T07:39:28.121Z,56.34
2023-03-18T07:41:55.026Z,56.56
2023-03-18T07:44:24.748Z,56.71
2023-03-18T07:46:51.861Z,56.71
2023-03-18T07:49:18.628Z,56.77
2023-03-18T07:51:46.864Z,56.59
2023-03-18T07:54:13.732Z,56.26
2023-03-18T07:56:40.531Z,56.17
2023-03-18T07:59:09.786Z,56.13
2023-03-18T08:01:36.657Z,55.84
2023-03-18T08:04:03.781Z,55.71
2023-03-18T08:06:32.336Z,55.64
2023-03-18T08:08:59.766Z,55.53
2023-03-18T08:11:29.739Z,55.62
2023-03-18T08:13:58.706Z,55.40
2023-03-18T08:16:26.563Z,55.34
2023-03-18T08:18:54.602Z,55.23
2023-03-18T08:21:24.193Z,55.12
2023-03-18T08:23:51.634Z,55.25
2023-03-18T08:26:18.963Z,55.17
2023-03-18T08:28:45.760Z,54.61
2023-03-18T08:31:14.721Z,54.11
2023-03-18T08:33:41.864Z,53.61
2023-03-18T08:36:08.756Z,53.30
2023-03-18T08:38:38.567Z,53.12
2023-03-18T08:41:05.943Z,52.95
2023-03-18T08:43:32.542Z,52.40
2023-03-18T08:45:59.655Z,52.04
2023-03-18T08:48:26.235Z,51.33
2023-03-18T08:50:55.280Z,51.23
2023-03-18T08:53:22.162Z,50.90
2023-03-18T08:55:48.956Z,49.98
2023-03-18T08:58:16.636Z,49.96
2023-03-18T09:00:43.834Z,49.45
2023-03-18T09:03:12.632Z,49.57
2023-03-18T09:05:40.128Z,49.99
2023-03-18T09:08:06.832Z,49.92
2023-03-18T09:10:33.712Z,49.75
2023-03-18T09:13:01.220Z,49.92
2023-03-18T09:15:27.948Z,49.91
2023-03-18T09:18:10.522Z,50.02
2023-03-18T09:20:39.547Z,50.10
2023-03-18T09:23:07.759Z,50.13
2023-03-18T09:25:35.625Z,50.14
2023-03-18T09:28:02.360Z,50.06
2023-03-18T09:30:32.983Z,49.99
2023-03-18T09:33:01.076Z,50.00
2023-03-18T09:35:35.968Z,50.16
2023-03-18T09:38:03.400Z,50.15
2023-03-18T09:40:32.124Z,50.24
2023-03-18T09:43:03.287Z,50.39
2023-03-18T09:45:34.011Z,50.64
2023-03-18T09:48:15.942Z,50.54
2023-03-18T09:50:49.665Z,50.32
2023-03-18T09:53:20.682Z,50.48
2023-03-18T09:55:50.122Z,50.50
2023-03-18T09:58:36.707Z,50.71
2023-03-18T10:01:03.928Z,50.71
2023-03-18T10:03:46.224Z,50.60
2023-03-18T10:06:31.115Z,50.69
2023-03-18T10:09:05.097Z,50.83
2023-03-18T10:11:37.718Z,50.63
2023-03-18T10:14:22.976Z,50.75
2023-03-18T10:17:09.392Z,50.57
2023-03-18T10:19:37.039Z,50.70
2023-03-18T10:22:18.167Z,50.81
2023-03-18T10:25:15.103Z,50.85
2023-03-18T10:27:58.513Z,50.68
2023-03-18T10:30:39.157Z,50.83
2023-03-18T10:33:29.327Z,50.75
2023-03-18T10:36:26.089Z,50.53
2023-03-18T10:38:53.553Z,50.69
2023-03-18T10:41:34.315Z,50.33
2023-03-18T10:44:15.437Z,50.16
2023-03-18T10:46:43.371Z,49.66
2023-03-18T10:49:14.411Z,49.44
2023-03-18T10:51:47.009Z,49.36
2023-03-18T10:54:24.892Z,49.71
2023-03-18T10:56:52.488Z,49.65
2023-03-18T10:59:20.859Z,49.57
2023-03-18T11:01:52.192Z,49.36
2023-03-18T11:04:20.906Z,49.46
2023-03-18T11:07:00.969Z,49.28
2023-03-18T11:09:35.704Z,48.65
2023-03-18T11:12:07.199Z,48.87
2023-03-18T11:14:36.796Z,49.02
2023-03-18T11:17:05.608Z,49.01
2023-03-18T11:19:38.633Z,48.83
2023-03-18T11:22:09.418Z,48.16
2023-03-18T11:24:41.868Z,47.70
2023-03-18T11:27:14.089Z,47.76
2023-03-18T11:29:42.248Z,47.73
2023-03-18T11:32:27.150Z,47.81
2023-03-18T11:34:56.610Z,47.58
2023-03-18T11:37:36.637Z,46.77
2023-03-18T11:40:13.710Z,46.42
2023-03-18T11:42:42.640Z,46.72
2023-03-18T11:45:35.291Z,46.55
2023-03-18T11:48:03.096Z,46.05
2023-03-18T11:50:38.901Z,45.45
2023-03-18T11:53:17.016Z,45.31
2023-03-18T11:56:31.024Z,45.07
2023-03-18T11:59:08.907Z,43.99
2023-03-18T12:01:46.139Z,43.18
2023-03-18T12:04:35.235Z,42.35
2023-03-18T12:07:14.721Z,41.84
2023-03-18T12:10:12.254Z,41.54
2023-03-18T12:12:45.967Z,41.04
2023-03-18T12:15:35.700Z,40.45
2023-03-18T12:18:11.466Z,40.42
2023-03-18T12:20:47.422Z,40.62
2023-03-18T12:23:32.344Z,40.83
2023-03-18T12:26:16.409Z,40.47
2023-03-18T12:29:09.001Z,40.46
2023-03-18T12:31:40.708Z,40.65
2023-03-18T12:34:22.821Z,40.93
2023-03-18T12:37:31.632Z,40.90
2023-03-18T12:40:20.780Z,41.09
2023-03-18T12:43:20.309Z,41.12
2023-03-18T12:45:47.999Z,41.32
2023-03-18T12:48:17.998Z,41.19
2023-03-18T12:51:05.450Z,41.27
2023-03-18T12:53:40.582Z,41.10
2023-03-18T12:56:16.822Z,41.37
2023-03-18T12:58:45.628Z,41.34
2023-03-18T13:01:17.513Z,41.15
2023-03-18T13:03:51.474Z,41.03
2023-03-18T13:06:39.840Z,41.03
2023-03-18T13:09:44.021Z,40.96
2023-03-18T13:12:32.840Z,40.82
2023-03-18T13:15:26.170Z,41.17
2023-03-18T13:17:55.665Z,41.17
2023-03-18T13:20:24.323Z,41.08
2023-03-18T13:23:20.136Z,41.06
2023-03-18T13:26:14.674Z,41.17
2023-03-18T13:29:20.127Z,41.29
2023-03-18T13:32:06.090Z,41.46
2023-03-18T13:34:49.440Z,41.59
2023-03-18T13:37:34.189Z,41.70
2023-03-18T13:40:42.979Z,41.60
2023-03-18T13:43:17.684Z,41.67
2023-03-18T13:45:46.034Z,41.98
2023-03-18T13:48:27.922Z,41.98
2023-03-18T13:50:56.853Z,42.24
2023-03-18T13:53:29.432Z,41.97
2023-03-18T13:55:57.225Z,41.76
2023-03-18T13:58:27.055Z,41.52
2023-03-18T14:00:54.421Z,41.96
2023-03-18T14:03:22.320Z,42.27
2023-03-18T14:05:53.482Z,42.58
2023-03-18T14:08:41.732Z,42.75
2023-03-18T14:11:21.959Z,42.79
2023-03-18T14:13:53.277Z,42.79
2023-03-18T14:16:46.794Z,42.70
2023-03-18T14:19:27.864Z,42.59
2023-03-18T14:22:07.632Z,42.64
2023-03-18T14:24:34.772Z,42.74
2023-03-18T14:27:03.810Z,43.15
2023-03-18T14:29:41.064Z,43.43
2023-03-18T14:32:35.752Z,43.78
2023-03-18T14:35:30.532Z,44.49
2023-03-18T14:38:10.183Z,44.61
2023-03-18T14:40:42.448Z,44.76
2023-03-18T14:43:38.206Z,44.91
2023-03-18T14:46:31.241Z,45.17
2023-03-18T14:49:01.324Z,45.47
2023-03-18T14:51:31.744Z,45.67
2023-03-18T14:54:06.300Z,46.04
2023-03-18T14:56:42.169Z,46.31
2023-03-18T14:59:16.764Z,46.64
2023-03-18T15:01:52.980Z,46.87
2023-03-18T15:04:25.186Z,46.98
2023-03-18T15:06:56.481Z,46.99
2023-03-18T15:09:30.166Z,47.07
2023-03-18T15:11:59.189Z,47.27
2023-03-18T15:14:31.097Z,47.11
2023-03-18T15:17:02.209Z,47.28
2023-03-18T15:19:34.289Z,47.55
2023-03-18T15:22:07.203Z,47.72
2023-03-18T15:24:38.194Z,48.10
2023-03-18T15:27:21.364Z,48.21
2023-03-18T15:29:57.230Z,48.37
2023-03-18T15:32:35.169Z,48.55
2023-03-18T15:41:40.050Z,49.50
2023-03-18T15:44:14.454Z,49.63
2023-03-18T15:46:46.380Z,49.79
2023-03-18T15:49:14.746Z,50.12
2023-03-18T15:51:47.819Z,50.35
2023-03-18T15:54:18.175Z,50.47
2023-03-18T15:56:48.842Z,50.75
2023-03-18T15:59:24.559Z,50.90
2023-03-18T16:01:54.600Z,50.88
2023-03-18T16:04:22.960Z,51.00
2023-03-18T16:06:54.892Z,51.22
2023-03-18T16:09:24.532Z,51.31
2023-03-18T16:11:59.190Z,51.80
2023-03-18T16:14:30.461Z,51.73
2023-03-18T16:16:58.771Z,51.85
2023-03-18T16:19:28.431Z,52.42
2023-03-18T16:21:58.706Z,52.85
2023-03-18T16:24:28.119Z,52.74
2023-03-18T16:26:57.272Z,53.01
2023-03-18T16:29:32.770Z,53.14
2023-03-18T16:32:02.060Z,53.27
2023-03-18T16:34:30.834Z,53.79
2023-03-18T16:36:58.858Z,53.94
2023-03-18T16:39:34.335Z,53.99
2023-03-18T16:42:08.744Z,54.33
2023-03-18T16:44:37.178Z,54.48
2023-03-18T16:47:05.479Z,54.49
2023-03-18T16:49:36.761Z,54.88
2023-03-18T16:52:05.139Z,55.12
2023-03-18T16:54:34.392Z,55.80
2023-03-18T16:57:05.894Z,55.99
2023-03-18T16:59:35.386Z,56.29
2023-03-18T17:02:04.329Z,56.18
2023-03-18T17:04:34.564Z,56.41
2023-03-18T17:07:04.691Z,56.91
2023-03-18T17:09:32.951Z,57.19
2023-03-18T17:12:06.623Z,57.33
2023-03-18T17:14:40.106Z,57.41
2023-03-18T17:17:28.350Z,57.46
2023-03-18T17:20:03.928Z,57.44
2023-03-18T17:22:33.551Z,57.75
2023-03-18T17:25:02.580Z,58.06
2023-03-18T17:27:34.900Z,58.28
2023-03-18T17:30:03.722Z,58.42
2023-03-18T17:32:32.567Z,59.12
2023-03-18T17:35:01.332Z,59.16
2023-03-18T17:37:29.786Z,59.24
2023-03-18T17:40:06.963Z,59.28
2023-03-18T17:42:36.299Z,59.65
2023-03-18T17:45:29.736Z,59.96
2023-03-18T17:48:22.076Z,60.08
2023-03-18T17:51:02.791Z,59.95
2023-03-18T17:53:37.535Z,60.76
2023-03-18T17:56:08.007Z,61.66
2023-03-18T17:58:37.861Z,62.16
2023-03-18T18:01:07.874Z,62.19
2023-03-18T18:03:36.982Z,63.02
2023-03-18T18:06:06.935Z,63.31
2023-03-18T18:08:36.209Z,63.25
2023-03-18T18:11:15.392Z,63.30
2023-03-18T18:13:43.699Z,63.73
2023-03-18T18:16:13.141Z,64.27
2023-03-18T18:18:49.625Z,64.83
2023-03-18T18:21:22.059Z,64.93
2023-03-18T18:23:50.603Z,65.25
2023-03-18T18:26:19.984Z,66.02
2023-03-18T18:28:49.659Z,66.44
2023-03-18T18:31:22.359Z,66.97
2023-03-18T18:33:55.779Z,67.23
2023-03-18T18:36:28.214Z,67.79
2023-03-18T18:38:56.758Z,68.49
2023-03-18T18:41:27.553Z,68.65
2023-03-18T18:43:56.013Z,68.97
2023-03-18T18:46:25.200Z,69.07
2023-03-18T18:48:53.898Z,68.88
2023-03-18T18:51:23.271Z,68.61
2023-03-18T18:53:53.488Z,69.02
2023-03-18T18:56:23.765Z,69.09
2023-03-18T18:58:52.083Z,69.30
2023-03-18T19:01:20.407Z,69.30
2023-03-18T19:03:50.072Z,69.79
2023-03-18T19:06:30.511Z,69.60
2023-03-18T19:09:01.999Z,69.53
2023-03-18T19:11:30.299Z,69.55
2023-03-18T19:14:21.995Z,69.60
2023-03-18T19:16:50.534Z,69.75
2023-03-18T19:19:20.656Z,69.63
2023-03-18T19:21:54.446Z,69.73
2023-03-18T19:24:30.961Z,69.94
2023-03-18T19:27:03.175Z,70.03
2023-03-18T19:29:33.089Z,70.40
2023-03-18T19:32:01.867Z,70.35
2023-03-18T19:34:32.472Z,70.72
2023-03-18T19:37:02.987Z,70.72
2023-03-18T19:39:32.055Z,70.79
2023-03-18T19:42:01.750Z,70.50
2023-03-18T19:44:32.149Z,70.67
2023-03-18T19:47:01.638Z,70.78
2023-03-18T19:49:36.620Z,71.14
2023-03-18T19:52:17.112Z,71.09
2023-03-18T19:54:48.399Z,71.19
2023-03-18T19:57:28.176Z,71.11
2023-03-18T20:00:01.418Z,71.23
2023-03-18T20:02:31.792Z,71.51
2023-03-18T20:05:04.465Z,71.28
2023-03-18T20:07:33.269Z,71.64
2023-03-18T20:10:01.748Z,71.54
2023-03-18T20:12:46.802Z,71.38
2023-03-18T20:15:25.593Z,71.34
2023-03-18T20:17:55.058Z,71.38
2023-03-18T20:20:25.061Z,71.10
2023-03-18T20:22:56.414Z,71.26
2023-03-18T20:25:36.006Z,71.34
2023-03-18T20:28:07.320Z,71.37
2023-03-18T20:30:36.770Z,71.52
2023-03-18T20:33:07.606Z,71.74
2023-03-18T20:35:41.694Z,71.58
2023-03-18T20:38:14.183Z,71.64
2023-03-18T20:40:46.411Z,71.79
2023-03-18T20:43:19.833Z,71.70
2023-03-18T20:45:51.571Z,71.55
2023-03-18T20:48:21.213Z,71.48
2023-03-18T20:50:52.441Z,71.54
2023-03-18T20:53:26.136Z,71.66
2023-03-18T20:55:54.435Z,71.71
2023-03-18T20:58:25.030Z,71.39
2023-03-18T21:00:54.552Z,71.55
2023-03-18T21:03:33.825Z,71.62
2023-03-18T21:06:03.966Z,72.11
2023-03-18T21:08:33.200Z,71.83
2023-03-18T21:11:04.024Z,71.31
2023-03-18T21:13:36.334Z,71.41
2023-03-18T21:16:10.748Z,71.43
2023-03-18T21:18:40.946Z,71.23
2023-03-18T21:21:31.970Z,71.18
2023-03-18T21:24:00.330Z,71.29
2023-03-18T21:26:28.649Z,71.18
2023-03-18T21:28:57.466Z,71.45
2023-03-18T21:31:31.462Z,71.25
2023-03-18T21:34:00.209Z,71.69
2023-03-18T21:36:28.275Z,72.24
2023-03-18T21:38:56.970Z,72.07
2023-03-18T21:41:28.105Z,72.53
2023-03-18T21:43:56.125Z,72.83
2023-03-18T21:46:27.230Z,73.10
2023-03-18T21:48:56.203Z,73.41
2023-03-18T21:51:38.097Z,73.38
2023-03-18T21:54:16.209Z,73.59
2023-03-18T21:56:47.924Z,73.68
2023-03-18T21:59:16.255Z,74.13
2023-03-18T22:01:46.708Z,74.68
2023-03-18T22:04:15.159Z,75.24
2023-03-18T22:06:43.640Z,75.45
2023-03-18T22:09:11.914Z,75.69
2023-03-18T22:11:39.908Z,75.71
2023-03-18T22:14:10.411Z,75.79
2023-03-18T22:16:40.152Z,75.54
2023-03-18T22:19:08.611Z,75.34
2023-03-18T22:21:39.762Z,74.97
2023-03-18T22:24:12.961Z,75.13
2023-03-18T22:26:41.140Z,74.98
2023-03-18T22:29:12.646Z,74.90
2023-03-18T22:31:43.624Z,74.75
2023-03-18T22:34:22.701Z,74.81
2023-03-18T22:36:51.837Z,74.71
2023-03-18T22:39:20.066Z,74.71
2023-03-18T22:41:53.768Z,74.47
2023-03-18T22:44:22.922Z,74.38
2023-03-18T22:46:51.472Z,74.27
2023-03-18T22:49:20.095Z,73.83
2023-03-18T22:51:48.956Z,73.58
2023-03-18T22:54:19.287Z,73.36
2023-03-18T22:56:47.303Z,73.20
2023-03-18T22:59:15.531Z,72.86
2023-03-18T23:01:43.888Z,72.55
2023-03-18T23:04:12.503Z,72.54
2023-03-18T23:06:44.187Z,72.41
2023-03-18T23:09:13.167Z,72.03
2023-03-18T23:11:41.218Z,71.67
2023-03-18T23:14:11.094Z,71.51
2023-03-18T23:16:41.158Z,71.29
2023-03-18T23:19:09.546Z,71.29
2023-03-18T23:21:39.675Z,70.91
2023-03-18T23:24:09.358Z,70.73
2023-03-18T23:26:37.501Z,70.59
2023-03-18T23:29:06.448Z,70.41
2023-03-18T23:31:34.713Z,70.51
2023-03-18T23:34:03.940Z,70.43
2023-03-18T23:36:33.021Z,69.99
2023-03-18T23:39:01.342Z,69.63
2023-03-18T23:41:30.732Z,69.35
2023-03-18T23:44:03.688Z,69.02
2023-03-18T23:46:32.927Z,68.64
2023-03-18T23:49:01.383Z,68.61
2023-03-18T23:51:30.073Z,68.54
2023-03-18T23:53:58.307Z,68.57
2023-03-18T23:56:26.515Z,68.47
2023-03-18T23:58:54.994Z,68.34
